Xoxocotlan International Airport
MMOX : rendu visible

Aérodrome :











RETROUVEZ-NOUS SUR...

 
LOGIN :

S'inscrire | Disclaimer

   EN    FR    IT 

 









Légende :    VFR   VFR Marginal   IFR   IFR Intensif   IFR Très Intensif
Visi : 
Plafond : 
>= 8 km
>= 3000ft
5 à 8 km
1000 à 3000 ft
1500m à 5 km
500 à 1000 ft
800 à 1500m
200 à 500 ft
< 800m
< 200 ft
Symboles :   Orages  Brouillard  Fortes neiges  Fortes précipitations  Vent > 20 kt






- Altitude de l'aérodrome : 4989 ft
- Code IATA : OAX


MMOX - Xoxocotlan International

METARs EXPIRÉS :
  • 272249Z 35007KT 6SM BKN025CB OVC100 22/15 A3014 RMK 8/96/ PCPN N/HZY/OCNL DROPS

TAF TAF MMOX
Valide du 27 à 18h jusqu'au 28 à 18h UTC


271629Z 2718/2818 13010KT 5SM HZ SCT080 BKN220
TEMPO 2721/2801 5SM -TSRA BKN020CB
FM280300 34005KT 5SM HZ SCT080 BKN220
BECMG 2810/2811 4SM HZ
FM281600 15006KT 5SM HZ SCT090
FIR MMFR / Amérique du Nord



MET'MAP, la Météo Aéronautique d'un coup d'oeil ! - Copyright ORBIFLY Décembre 2007 - Disclaimer

ORBIFLY MET'MAP TEAM :

Programmation & Développement : Alexandra Zaïnal
Sur une idée originale de : Baudouin d'Aumeries
Assistance à la programmation : Marc-Olivier Méhu
Soutien technique & logistique : Manuel Goepfert

Contact : metmap@orbifly.com




SOURCES & CREDITS :

   NOAA       Earth
Advisory